< Typhoon 198316 1983 Season Typhoon 198318 >
Typhoon 198317 (MARGE)
General InformationTrack Information on Google MapsDetailed Wind InformationList of All Images || Disaster Info.ResourceGoogle EarthGE AnimationAtom FeedGeoJSON
Detalied Best Track (Time Zone = UTC)
Year Month Day Hour Lat. Long. Pressure (hPa) Wind (kt) Class Image Chart
1983 10 31 06 10.0 145.5 1004 0 2 Image Chart
1983 10 31 12 10.2 144.8 1002 0 2 Image Chart
1983 10 31 18 10.6 144.0 1000 0 2 Image Chart
1983 11 1 00 11.2 143.0 998 35 3 Image Chart
1983 11 1 06 12.0 142.1 996 40 3 Image Chart
1983 11 1 12 12.8 141.0 994 40 3 Image Chart
1983 11 1 18 13.6 140.5 990 45 3 Image Chart
1983 11 2 00 14.5 140.3 990 50 4 Image Chart
1983 11 2 06 15.4 140.0 985 60 4 Image Chart
1983 11 2 12 16.0 139.7 980 65 5 Image Chart
1983 11 2 18 16.6 139.4 975 70 5 Image Chart
1983 11 3 00 17.0 138.8 965 70 5 Image Chart
1983 11 3 06 17.4 138.2 950 80 5 Image Chart
1983 11 3 12 17.7 137.3 930 90 5 Image Chart
1983 11 3 18 18.0 136.3 915 90 5 Image Chart
1983 11 4 00 18.2 135.2 895 110 5 Image Chart
1983 11 4 06 18.5 134.4 895 110 5 Image Chart
1983 11 4 12 18.9 134.1 900 110 5 Image Chart
1983 11 4 18 19.4 133.7 905 110 5 Image Chart
1983 11 5 00 19.9 133.3 910 110 5 Image Chart
1983 11 5 06 20.4 133.4 915 110 5 Image Chart
1983 11 5 12 21.2 133.7 915 100 5 Image Chart
1983 11 5 18 21.8 134.4 920 100 5 Image Chart
1983 11 6 00 22.6 135.4 925 100 5 Image Chart
1983 11 6 06 23.8 137.2 925 100 5 Image Chart
1983 11 6 12 25.4 139.9 925 100 5 Image Chart
1983 11 6 18 27.8 143.2 940 100 5 Image Chart
1983 11 7 00 31.3 148.0 955 70 5 Image Chart
1983 11 7 06 35.1 153.0 960 75 5 Image Chart
1983 11 7 12 38.0 159.5 976 0 6 Image Chart
1983 11 7 18 38.8 164.2 986 0 6 Image Chart
1983 11 8 00 39.0 169.0 996 0 6 Image Chart
1983 11 8 06 39.0 174.0 996 0 6 Image Chart
1983 11 8 12 39.0 183.0 996 0 6 Image Chart
Japan Meteorological Agency Best Track Data | Correction Date : 1992-10-21
< Typhoon 198316 1983 Season Typhoon 198318 >

Help